Time;durP1;ratioP1;P1;durP2;ratioP2;P2;SDS_P1;SDS_P2;PMS_P1;PMS_P2;Temp;Humidity;BMP_temperature;BMP_pressure;BME280_temperature;BME280_humidity;BME280_pressure;Samples;Min_cycle;Max_cycle;Signal;HPM_P1;HPM_P2
2021/08/26 00:06:51;;;;;;;9.30;5.97;;;;;;;18.77;60.15;93691.44;4973319;28;20598;-75
2021/08/26 00:09:17;;;;;;;10.70;6.63;;;;;;;18.79;60.20;93694.56;4975085;28;20078;-75
2021/08/26 00:11:47;;;;;;;7.75;6.15;;;;;;;18.55;61.75;93678.06;4977218;28;20165;-75
2021/08/26 00:14:17;;;;;;;8.38;6.65;;;;;;;18.72;60.52;93686.41;4973777;28;20022;-75
2021/08/26 00:16:43;;;;;;;7.38;5.85;;;;;;;18.86;59.77;93683.88;4981423;28;20065;-75
2021/08/26 00:19:09;;;;;;;10.45;6.57;;;;;;;18.56;62.07;93685.78;4974754;28;20058;-74
2021/08/26 00:21:35;;;;;;;7.93;6.13;;;;;;;18.41;62.26;93668.69;4977116;28;20035;-75
2021/08/26 00:24:01;;;;;;;8.57;6.82;;;;;;;18.53;61.97;93686.50;4976873;28;20047;-75
2021/08/26 00:26:31;;;;;;;9.52;6.38;;;;;;;18.60;61.27;93685.81;4973648;28;20042;-75
2021/08/26 00:28:56;;;;;;;9.45;6.65;;;;;;;18.47;61.57;93677.22;4975439;28;20034;-76
2021/08/26 00:31:22;;;;;;;10.82;6.95;;;;;;;18.23;62.13;93659.59;4977855;28;20026;-75
2021/08/26 00:33:47;;;;;;;6.50;5.50;;;;;;;18.32;62.43;93670.88;4967048;28;20473;-75
2021/08/26 00:36:12;;;;;;;9.90;6.13;;;;;;;18.37;62.45;93672.47;4976089;28;20497;-75
2021/08/26 00:38:38;;;;;;;8.10;5.68;;;;;;;18.39;61.95;93675.56;4973134;28;20030;-75
2021/08/26 00:41:03;;;;;;;10.15;6.50;;;;;;;18.38;62.29;93674.03;4974445;28;20409;-75
2021/08/26 00:43:30;;;;;;;7.63;6.00;;;;;;;18.53;61.28;93667.66;4974053;28;20202;-75
2021/08/26 00:45:56;;;;;;;7.75;6.63;;;;;;;18.58;61.82;93672.72;4971259;28;20350;-75
2021/08/26 00:48:28;;;;;;;11.00;6.55;;;;;;;18.59;60.75;93660.81;4978525;28;20034;-75
2021/08/26 00:50:56;;;;;;;8.15;6.75;;;;;;;18.61;60.90;93674.69;4975376;28;20117;-75
2021/08/26 00:53:22;;;;;;;9.00;6.72;;;;;;;18.41;62.00;93675.97;4974865;28;20466;-75
2021/08/26 00:55:47;;;;;;;9.02;5.85;;;;;;;18.14;62.96;93658.31;4978514;28;20041;-75
2021/08/26 00:58:13;;;;;;;10.07;6.53;;;;;;;18.06;63.72;93652.03;4973948;28;20062;-75
2021/08/26 01:00:42;;;;;;;9.82;6.55;;;;;;;18.08;64.14;93660.53;4976949;28;20052;-75
2021/08/26 01:03:13;;;;;;;8.90;7.03;;;;;;;18.25;63.04;93664.59;4973746;28;20100;-75
2021/08/26 01:05:55;;;;;;;9.23;7.18;;;;;;;18.38;62.86;93668.63;4973661;28;20049;-75
2021/08/26 01:08:40;;;;;;;11.85;6.70;;;;;;;18.64;61.73;93670.47;4972253;28;20043;-75
2021/08/26 01:11:06;;;;;;;9.80;7.32;;;;;;;18.51;62.09;93666.47;4973736;28;20153;-75
2021/08/26 01:13:36;;;;;;;8.60;6.32;;;;;;;18.51;62.13;93669.16;4974278;28;20172;-75
2021/08/26 01:16:10;;;;;;;9.73;7.63;;;;;;;18.34;62.29;93647.03;4977911;28;20142;-75
2021/08/26 01:18:38;;;;;;;12.10;7.78;;;;;;;18.29;62.61;93649.25;4985198;28;20540;-77
2021/08/26 01:21:04;;;;;;;8.93;7.40;;;;;;;18.32;63.88;93659.31;4977079;28;20038;-75
2021/08/26 01:23:35;;;;;;;10.88;7.68;;;;;;;18.44;62.86;93661.78;4969000;28;20042;-75
2021/08/26 01:26:04;;;;;;;13.10;8.15;;;;;;;18.36;62.93;93655.53;4974317;28;20030;-75
2021/08/26 01:28:33;;;;;;;12.88;8.50;;;;;;;18.48;62.77;93651.06;4987971;28;20022;-75
2021/08/26 01:30:58;;;;;;;11.27;7.90;;;;;;;18.30;62.86;93646.22;4975074;28;20041;-75
2021/08/26 01:33:24;;;;;;;16.15;7.97;;;;;;;18.36;63.00;93660.13;4988743;28;20046;-75
2021/08/26 01:35:50;;;;;;;12.60;6.72;;;;;;;18.29;62.65;93649.25;4970963;28;20046;-75
2021/08/26 01:38:25;;;;;;;9.95;7.07;;;;;;;18.31;62.51;93644.31;4965015;28;20058;-76
2021/08/26 01:40:50;;;;;;;9.93;8.05;;;;;;;18.46;62.04;93662.19;4966590;28;20117;-75
2021/08/26 01:43:21;;;;;;;9.32;7.22;;;;;;;18.32;63.25;93667.41;4972770;28;20042;-75
2021/08/26 01:45:47;;;;;;;13.15;7.25;;;;;;;18.21;63.94;93663.78;4968632;28;20603;-75
2021/08/26 01:48:20;;;;;;;9.05;7.50;;;;;;;18.15;64.36;93649.09;4971639;28;20436;-75
2021/08/26 01:50:48;;;;;;;9.80;6.82;;;;;;;18.16;64.24;93656.03;4966293;28;20046;-75
2021/08/26 01:53:17;;;;;;;11.55;7.95;;;;;;;18.29;64.67;93670.81;4966988;28;20030;-75
2021/08/26 01:55:45;;;;;;;9.98;7.78;;;;;;;18.30;64.65;93664.28;4972800;28;20140;-75
2021/08/26 01:58:12;;;;;;;9.43;8.23;;;;;;;18.39;64.21;93657.47;4970125;28;20041;-75
2021/08/26 02:00:38;;;;;;;11.82;7.40;;;;;;;18.29;64.96;93647.34;4971628;28;20049;-75
2021/08/26 02:03:04;;;;;;;9.43;7.88;;;;;;;18.35;64.60;93653.97;4987326;28;20081;-75
2021/08/26 02:05:29;;;;;;;11.25;8.93;;;;;;;18.38;63.85;93652.47;4971095;28;20150;-75
2021/08/26 02:07:55;;;;;;;9.48;8.20;;;;;;;18.51;63.43;93653.00;4973793;28;20502;-75
2021/08/26 02:10:21;;;;;;;9.15;8.10;;;;;;;18.55;63.65;93673.47;4974295;28;20527;-76
2021/08/26 02:12:46;;;;;;;13.93;8.00;;;;;;;18.63;62.88;93661.63;4969409;28;20070;-76
2021/08/26 02:15:13;;;;;;;11.02;8.73;;;;;;;18.65;62.30;93659.34;4970314;28;20133;-76
2021/08/26 02:17:38;;;;;;;8.93;7.95;;;;;;;18.55;63.61;93651.91;4971781;28;20046;-75
2021/08/26 02:20:05;;;;;;;12.45;9.00;;;;;;;18.60;64.01;93650.81;4974617;28;20480;-75
2021/08/26 02:22:31;;;;;;;10.20;8.40;;;;;;;18.52;64.59;93641.88;4987751;28;20026;-74
2021/08/26 02:24:56;;;;;;;12.68;8.25;;;;;;;18.61;64.67;93646.97;4970307;28;20084;-75
2021/08/26 02:27:21;;;;;;;11.98;8.00;;;;;;;18.48;64.72;93635.66;4987805;28;20117;-75
2021/08/26 02:29:47;;;;;;;11.93;8.30;;;;;;;18.48;64.56;93624.13;4976457;28;20342;-75
2021/08/26 02:32:12;;;;;;;20.23;9.70;;;;;;;18.53;63.94;93629.94;4978196;28;20037;-75
2021/08/26 02:34:38;;;;;;;12.25;8.10;;;;;;;18.68;64.49;93634.34;4973649;28;20036;-75
2021/08/26 02:37:04;;;;;;;12.23;8.05;;;;;;;18.57;64.54;93617.31;4976903;28;20065;-75
2021/08/26 02:39:30;;;;;;;13.63;8.43;;;;;;;18.65;64.71;93640.50;4975096;28;20042;-76
2021/08/26 02:41:58;;;;;;;12.98;7.82;;;;;;;18.65;64.24;93639.72;4976039;28;20050;-78
2021/08/26 02:44:23;;;;;;;11.00;8.07;;;;;;;18.55;64.56;93638.44;4979736;28;20038;-75
2021/08/26 02:46:49;;;;;;;16.58;8.57;;;;;;;18.62;64.58;93645.84;4978849;28;20139;-75
2021/08/26 02:49:14;;;;;;;9.77;7.78;;;;;;;18.52;64.66;93641.88;4977780;28;20031;-75
2021/08/26 02:51:39;;;;;;;12.93;8.48;;;;;;;18.64;64.25;93644.31;4975743;28;20939;-75
2021/08/26 02:54:05;;;;;;;11.07;8.05;;;;;;;18.65;64.56;93645.09;4976630;28;20054;-76
2021/08/26 02:56:30;;;;;;;12.05;8.43;;;;;;;18.62;64.53;93635.06;4980277;28;20499;-75
2021/08/26 02:58:55;;;;;;;9.65;7.63;;;;;;;18.62;64.37;93653.91;4973929;28;20660;-76
2021/08/26 03:01:21;;;;;;;12.27;9.63;;;;;;;18.58;64.16;93643.09;4979274;28;20053;-77
2021/08/26 03:03:46;;;;;;;9.82;8.52;;;;;;;18.62;63.73;93641.22;4976255;28;20038;-75
2021/08/26 03:06:12;;;;;;;9.00;7.47;;;;;;;18.93;62.81;93645.44;4977851;28;20501;-75
2021/08/26 03:08:37;;;;;;;11.25;9.07;;;;;;;18.87;62.80;93641.53;4975098;28;20405;-77
2021/08/26 03:11:03;;;;;;;12.60;8.43;;;;;;;18.67;63.97;93632.81;4991731;28;20602;-75
2021/08/26 03:13:28;;;;;;;11.23;8.18;;;;;;;18.84;62.86;93639.56;4976130;28;20599;-75
2021/08/26 03:15:54;;;;;;;10.77;7.35;;;;;;;18.83;62.82;93624.53;4977137;28;20046;-74
2021/08/26 03:18:19;;;;;;;9.88;8.43;;;;;;;18.85;63.48;93639.22;4975979;28;20042;-75
2021/08/26 03:20:44;;;;;;;9.18;7.60;;;;;;;18.83;63.76;93641.47;4979052;28;20042;-75
2021/08/26 03:23:12;;;;;;;11.38;8.00;;;;;;;18.76;63.71;93641.41;4976934;28;20022;-76
2021/08/26 03:25:37;;;;;;;11.23;9.07;;;;;;;18.70;63.85;93636.69;4990131;28;20528;-76
2021/08/26 03:28:03;;;;;;;14.63;8.88;;;;;;;18.64;64.06;93622.78;4975433;28;20153;-75
2021/08/26 03:30:29;;;;;;;10.40;8.18;;;;;;;18.70;64.47;93637.50;4987935;28;20046;-75
2021/08/26 03:32:55;;;;;;;9.15;7.72;;;;;;;18.72;64.51;93632.53;4972759;28;20038;-75
2021/08/26 03:35:21;;;;;;;11.45;7.63;;;;;;;18.98;63.69;93636.22;4971950;28;20050;-75
2021/08/26 03:37:46;;;;;;;8.93;7.60;;;;;;;19.06;63.56;93629.78;4977882;28;20026;-76
2021/08/26 03:40:12;;;;;;;12.38;8.10;;;;;;;18.85;64.39;93628.44;4975160;28;20129;-75
2021/08/26 03:42:37;;;;;;;14.38;8.73;;;;;;;18.79;63.81;93629.91;4976393;28;20030;-76
2021/08/26 03:45:07;;;;;;;9.27;7.65;;;;;;;19.03;63.07;93628.59;4976254;28;20082;-76
2021/08/26 03:47:32;;;;;;;17.05;8.93;;;;;;;18.88;63.59;93638.47;4978483;28;20038;-75
2021/08/26 03:49:58;;;;;;;11.95;7.78;;;;;;;18.72;64.49;93621.75;4973642;28;20519;-76
2021/08/26 03:52:23;;;;;;;15.02;9.52;;;;;;;18.73;64.54;93625.19;4980229;28;20101;-75
2021/08/26 03:54:48;;;;;;;16.90;9.85;;;;;;;18.89;64.06;93625.75;4977578;28;20045;-75
2021/08/26 03:57:14;;;;;;;13.77;8.80;;;;;;;19.03;63.83;93622.44;4977879;28;20432;-75
2021/08/26 03:59:39;;;;;;;11.15;8.55;;;;;;;18.96;63.83;93616.97;4977592;28;20085;-75
2021/08/26 04:02:04;;;;;;;16.23;9.98;;;;;;;18.84;63.88;93610.72;4977544;28;20036;-75
2021/08/26 04:04:30;;;;;;;15.40;11.05;;;;;;;18.85;64.31;93623.03;4979049;28;20022;-75
2021/08/26 04:06:55;;;;;;;14.73;10.32;;;;;;;18.81;64.57;93627.63;4974957;28;20043;-76
2021/08/26 04:09:21;;;;;;;15.18;10.32;;;;;;;18.78;64.49;93622.94;4974728;28;20050;-76
2021/08/26 04:11:46;;;;;;;13.55;9.95;;;;;;;18.77;64.80;93609.88;4976245;28;20089;-77
2021/08/26 04:14:12;;;;;;;11.40;9.00;;;;;;;18.80;65.01;93626.06;4975371;28;20104;-76
2021/08/26 04:16:37;;;;;;;12.70;9.05;;;;;;;18.77;64.99;93621.41;4972155;28;20026;-75
2021/08/26 04:19:02;;;;;;;14.18;9.10;;;;;;;18.81;64.36;93619.53;4976234;28;20497;-76
2021/08/26 04:21:28;;;;;;;11.93;9.10;;;;;;;18.70;64.16;93637.50;4975938;28;21464;-77
2021/08/26 04:23:54;;;;;;;13.52;9.98;;;;;;;18.68;64.13;93628.19;4975024;28;20145;-75
2021/08/26 04:26:19;;;;;;;14.82;9.15;;;;;;;18.71;64.06;93633.66;4976968;28;20040;-75
2021/08/26 04:28:44;;;;;;;11.85;9.02;;;;;;;18.82;63.85;93639.94;4975832;28;20042;-75
2021/08/26 04:31:10;;;;;;;10.63;8.73;;;;;;;19.03;63.38;93639.38;4973417;28;20042;-75
2021/08/26 04:33:35;;;;;;;14.10;9.45;;;;;;;18.92;63.01;93651.97;4973270;28;20444;-75
2021/08/26 04:36:01;;;;;;;14.05;9.90;;;;;;;18.84;63.71;93643.03;4973224;28;20153;-76
2021/08/26 04:38:26;;;;;;;13.95;9.18;;;;;;;18.82;64.35;93645.31;4976791;28;20042;-75
2021/08/26 04:40:52;;;;;;;15.82;10.27;;;;;;;18.80;63.90;93630.69;4977743;28;20030;-75
2021/08/26 04:43:17;;;;;;;13.70;9.02;;;;;;;19.03;63.80;93649.38;4976296;28;20038;-76
2021/08/26 04:45:43;;;;;;;11.48;8.80;;;;;;;18.93;64.31;93631.97;4971286;28;20061;-75
2021/08/26 04:48:08;;;;;;;14.38;9.88;;;;;;;19.00;64.35;93639.34;4978803;28;20061;-76
2021/08/26 04:50:34;;;;;;;17.25;10.13;;;;;;;18.99;64.05;93632.41;4969420;28;20069;-75
2021/08/26 04:52:59;;;;;;;13.50;9.45;;;;;;;19.04;63.98;93630.16;4974561;28;20038;-75
2021/08/26 04:55:24;;;;;;;19.73;13.38;;;;;;;19.00;64.03;93612.41;4972244;28;20470;-75
2021/08/26 04:57:50;;;;;;;14.55;12.73;;;;;;;19.09;63.78;93629.81;4975354;28;20048;-74
2021/08/26 05:00:15;;;;;;;14.18;11.23;;;;;;;19.00;63.23;93620.47;4972268;28;20076;-75
2021/08/26 05:02:41;;;;;;;17.85;10.00;;;;;;;18.77;64.49;93612.56;4975462;28;20054;-75
2021/08/26 05:05:07;;;;;;;16.35;10.68;;;;;;;18.76;63.97;93602.94;4978365;28;20444;-75
2021/08/26 05:07:32;;;;;;;13.30;9.38;;;;;;;18.97;62.98;93619.28;4969202;28;20080;-75
2021/08/26 05:09:58;;;;;;;11.77;8.95;;;;;;;18.86;63.19;93619.22;4973158;28;20375;-75
2021/08/26 05:12:23;;;;;;;11.70;8.63;;;;;;;18.72;62.64;93610.97;4973112;28;20026;-75
2021/08/26 05:14:49;;;;;;;13.07;8.90;;;;;;;18.91;62.87;93610.00;4974962;28;20034;-75
2021/08/26 05:17:15;;;;;;;9.88;7.70;;;;;;;18.99;62.86;93625.09;4973279;28;20245;-76
2021/08/26 05:19:40;;;;;;;9.20;7.70;;;;;;;19.12;61.83;93631.75;4975654;28;20073;-76
2021/08/26 05:22:06;;;;;;;12.30;8.20;;;;;;;19.03;61.76;93622.44;4975782;28;20077;-75
2021/08/26 05:24:32;;;;;;;14.80;7.75;;;;;;;19.07;60.57;93636.72;4971228;28;20716;-76
2021/08/26 05:26:57;;;;;;;11.82;7.35;;;;;;;19.06;60.88;93640.56;4976182;28;20516;-75
2021/08/26 05:29:22;;;;;;;10.00;7.90;;;;;;;19.20;61.70;93633.41;4971096;28;20078;-75
2021/08/26 05:31:48;;;;;;;14.88;8.70;;;;;;;19.16;61.72;93629.91;4976397;28;20433;-75
2021/08/26 05:34:13;;;;;;;11.15;7.85;;;;;;;19.06;62.14;93640.56;4973926;28;20157;-76
2021/08/26 05:36:39;;;;;;;12.38;8.77;;;;;;;19.01;61.95;93609.34;4975084;28;20038;-75
2021/08/26 05:39:04;;;;;;;16.73;9.70;;;;;;;18.65;63.84;93583.94;4974331;28;20050;-75
2021/08/26 05:41:30;;;;;;;10.88;9.43;;;;;;;18.71;64.77;93589.78;4974507;28;20049;-76
2021/08/26 05:43:55;;;;;;;13.63;8.75;;;;;;;18.56;65.31;93575.38;4973783;28;20400;-75
2021/08/26 05:46:21;;;;;;;11.93;9.63;;;;;;;18.48;65.19;93571.81;4974380;28;20061;-76
2021/08/26 05:48:46;;;;;;;13.30;8.90;;;;;;;18.48;65.54;93576.41;4974613;28;20043;-76
2021/08/26 05:51:11;;;;;;;14.77;8.45;;;;;;;18.53;65.08;93578.03;4969623;28;20073;-76
2021/08/26 05:53:37;;;;;;;9.30;7.47;;;;;;;18.56;64.91;93575.38;4973918;28;20541;-75
2021/08/26 05:56:02;;;;;;;11.35;8.30;;;;;;;18.50;65.52;93592.22;4973093;28;20030;-75
2021/08/26 05:58:28;;;;;;;13.23;8.52;;;;;;;18.41;64.83;93585.22;4972956;28;20065;-76
2021/08/26 06:00:53;;;;;;;8.00;7.03;;;;;;;18.49;64.27;93610.28;4972420;28;20069;-76
2021/08/26 06:03:18;;;;;;;8.18;6.55;;;;;;;18.38;63.65;93609.41;4973187;28;20877;-74
2021/08/26 06:05:44;;;;;;;6.82;5.85;;;;;;;18.17;64.21;93603.75;4973393;28;20246;-75
2021/08/26 06:08:09;;;;;;;12.02;7.03;;;;;;;18.24;64.65;93609.97;4970258;28;20041;-75
2021/08/26 06:10:37;;;;;;;8.95;6.80;;;;;;;18.18;64.45;93608.78;4972472;28;20165;-76
2021/08/26 06:13:03;;;;;;;12.45;7.05;;;;;;;18.35;64.24;93618.97;4970906;28;20042;-74
2021/08/26 06:15:28;;;;;;;13.20;6.50;;;;;;;18.42;63.72;93626.38;4970921;28;20042;-75
2021/08/26 06:17:54;;;;;;;9.82;6.60;;;;;;;18.54;63.07;93628.03;4971014;28;20045;-76
2021/08/26 06:20:19;;;;;;;13.18;6.53;;;;;;;18.52;62.44;93624.94;4972998;28;20041;-76
2021/08/26 06:22:45;;;;;;;7.38;6.53;;;;;;;18.55;63.11;93634.97;4970140;28;20030;-75
2021/08/26 06:25:11;;;;;;;13.10;7.15;;;;;;;18.74;62.19;93632.91;4971482;28;20081;-76
2021/08/26 06:27:37;;;;;;;10.10;6.82;;;;;;;18.78;61.31;93639.13;4971827;28;20038;-75
2021/08/26 06:30:07;;;;;;;10.48;7.25;;;;;;;18.48;61.20;93604.13;4972746;28;20034;-75
2021/08/26 06:32:33;;;;;;;8.75;6.50;;;;;;;18.76;61.99;93603.69;4972784;28;20447;-75
2021/08/26 06:34:58;;;;;;;9.80;7.60;;;;;;;18.45;64.39;93582.53;4970881;28;20061;-75
2021/08/26 06:37:25;;;;;;;11.77;7.55;;;;;;;18.36;66.06;93577.47;4986865;28;20161;-75
2021/08/26 06:39:51;;;;;;;10.43;9.32;;;;;;;18.40;66.19;93559.41;4970910;28;20681;-75
2021/08/26 06:42:17;;;;;;;10.70;7.25;;;;;;;18.92;65.89;93605.41;4972605;28;20041;-75
2021/08/26 06:44:42;;;;;;;12.93;7.85;;;;;;;18.84;65.67;93605.31;4967138;28;20551;-76
2021/08/26 06:47:08;;;;;;;10.75;7.88;;;;;;;18.65;65.46;93600.09;4972334;28;20022;-76
2021/08/26 06:49:33;;;;;;;11.02;7.45;;;;;;;18.23;66.03;93602.28;4972083;28;20495;-76
2021/08/26 06:51:59;;;;;;;11.80;8.93;;;;;;;18.44;64.97;93603.31;4970827;28;20489;-76
2021/08/26 06:54:24;;;;;;;10.90;8.52;;;;;;;18.22;64.42;93608.81;4973411;28;20085;-74
2021/08/26 06:56:49;;;;;;;9.77;8.38;;;;;;;18.44;64.57;93597.91;4973889;28;20046;-75
2021/08/26 06:59:15;;;;;;;11.63;8.82;;;;;;;18.50;64.38;93589.53;4968555;28;20049;-75
2021/08/26 07:01:40;;;;;;;12.18;8.40;;;;;;;18.48;63.11;93587.97;4970926;28;20041;-75
2021/08/26 07:04:06;;;;;;;13.52;8.77;;;;;;;18.77;62.83;93605.22;4974233;28;20148;-76
2021/08/26 07:06:31;;;;;;;13.18;9.40;;;;;;;18.40;64.96;93602.50;4972552;28;20050;-75
2021/08/26 07:08:58;;;;;;;13.48;9.55;;;;;;;18.55;64.88;93603.44;4971974;28;20038;-75
2021/08/26 07:11:23;;;;;;;12.65;10.45;;;;;;;18.62;65.81;93608.13;4975082;28;20045;-75
2021/08/26 07:13:48;;;;;;;11.23;8.25;;;;;;;19.00;62.68;93613.19;4971041;28;20137;-75
2021/08/26 07:16:14;;;;;;;9.85;8.18;;;;;;;18.95;63.17;93620.81;4976798;28;20046;-75
2021/08/26 07:18:39;;;;;;;11.35;8.18;;;;;;;18.96;62.97;93622.38;4974286;28;20031;-76
2021/08/26 07:21:05;;;;;;;11.05;8.07;;;;;;;18.55;62.52;93584.59;4977031;28;20038;-76
2021/08/26 07:23:30;;;;;;;9.50;8.40;;;;;;;18.85;62.88;93623.03;4975004;28;20097;-75
2021/08/26 07:25:55;;;;;;;14.85;8.55;;;;;;;18.80;63.72;93615.28;4975980;28;20026;-75
2021/08/26 07:28:21;;;;;;;11.48;8.90;;;;;;;18.79;63.00;93583.31;4974403;28;20041;-76
2021/08/26 07:30:46;;;;;;;14.20;7.95;;;;;;;18.78;62.80;93590.63;4975131;28;20046;-75
2021/08/26 07:33:12;;;;;;;8.93;8.02;;;;;;;18.63;60.33;93559.25;4977799;28;20046;-75
2021/08/26 07:35:37;;;;;;;13.02;8.38;;;;;;;18.99;62.47;93610.84;4974336;28;20038;-75
2021/08/26 07:38:03;;;;;;;9.18;7.90;;;;;;;19.07;61.55;93618.63;4975146;28;20022;-75
2021/08/26 07:40:29;;;;;;;8.38;7.40;;;;;;;19.06;62.58;93617.09;4978969;28;20053;-75
2021/08/26 07:42:54;;;;;;;9.63;7.07;;;;;;;19.12;62.37;93626.38;4975607;28;20637;-75
2021/08/26 07:45:20;;;;;;;8.45;7.35;;;;;;;19.14;62.69;93618.69;4977283;28;20512;-75
2021/08/26 07:47:45;;;;;;;8.23;7.43;;;;;;;19.23;62.04;93629.16;4978397;28;20053;-75
2021/08/26 07:50:11;;;;;;;11.48;7.40;;;;;;;19.33;61.73;93615.00;4990388;28;20030;-75
2021/08/26 07:52:37;;;;;;;12.15;7.90;;;;;;;19.35;60.23;93618.13;4975260;28;20101;-75
2021/08/26 07:55:03;;;;;;;8.85;7.30;;;;;;;19.44;58.14;93620.50;4979198;28;20604;-75
2021/08/26 07:57:32;;;;;;;8.80;7.80;;;;;;;19.35;59.24;93633.53;4975272;28;20042;-75
2021/08/26 07:59:58;;;;;;;8.65;7.78;;;;;;;19.17;61.96;93627.94;4975629;28;20041;-75
2021/08/26 08:02:24;;;;;;;14.30;8.55;;;;;;;18.98;63.16;93614.69;4973520;28;20453;-75
2021/08/26 08:04:49;;;;;;;10.93;8.50;;;;;;;18.89;62.75;93601.50;4977376;28;20100;-76
2021/08/26 08:07:15;;;;;;;12.30;8.68;;;;;;;19.02;63.71;93605.47;4974040;28;20437;-76
2021/08/26 08:09:41;;;;;;;9.55;8.07;;;;;;;18.83;64.83;93589.50;4973945;28;20073;-75
2021/08/26 08:12:06;;;;;;;15.85;8.95;;;;;;;18.92;62.68;93573.06;4976606;28;20038;-75
2021/08/26 08:14:32;;;;;;;10.90;8.48;;;;;;;18.80;61.60;93569.50;4973566;28;20054;-75
2021/08/26 08:16:58;;;;;;;12.75;9.50;;;;;;;18.76;62.61;93578.69;4976804;28;20026;-75
2021/08/26 08:19:23;;;;;;;13.23;9.27;;;;;;;18.83;62.62;93587.59;4970257;28;20094;-75
2021/08/26 08:21:49;;;;;;;11.43;9.55;;;;;;;19.06;62.26;93589.38;4975684;28;20568;-75
2021/08/26 08:24:15;;;;;;;13.38;9.38;;;;;;;19.20;62.13;93584.88;4969423;28;20053;-75
2021/08/26 08:26:40;;;;;;;12.38;9.88;;;;;;;19.44;61.13;93594.31;4974843;28;20347;-75
2021/08/26 08:29:05;;;;;;;10.35;8.75;;;;;;;19.20;61.08;93581.41;4975707;28;20066;-75
2021/08/26 08:31:31;;;;;;;13.25;9.20;;;;;;;19.34;60.41;93595.00;4975815;28;20026;-75
2021/08/26 08:33:57;;;;;;;13.55;9.60;;;;;;;19.11;61.48;93602.50;4975928;28;20049;-77
2021/08/26 08:36:22;;;;;;;14.02;9.75;;;;;;;19.44;60.92;93598.91;4976465;28;20105;-75
2021/08/26 08:38:48;;;;;;;12.52;9.02;;;;;;;19.35;61.10;93591.16;4976834;28;20114;-74
2021/08/26 08:41:18;;;;;;;11.65;8.90;;;;;;;19.48;62.13;93595.13;4974719;28;20034;-74
2021/08/26 08:43:44;;;;;;;12.00;8.82;;;;;;;19.50;62.70;93605.56;4975660;28;20481;-75
2021/08/26 08:46:10;;;;;;;13.05;10.45;;;;;;;19.40;61.05;93604.28;4974407;28;20101;-75
2021/08/26 08:48:40;;;;;;;12.70;9.48;;;;;;;19.33;61.00;93598.81;4974886;28;20497;-75
2021/08/26 08:51:07;;;;;;;13.80;10.13;;;;;;;19.30;60.39;93613.84;4975111;28;20085;-75
2021/08/26 08:53:33;;;;;;;13.52;9.43;;;;;;;19.38;59.86;93613.88;4973234;28;20121;-75
2021/08/26 08:56:02;;;;;;;10.52;9.43;;;;;;;19.50;59.08;93600.94;4976532;28;20776;-75
2021/08/26 08:58:27;;;;;;;14.93;9.60;;;;;;;19.80;58.07;93610.78;4968058;28;20037;-76
2021/08/26 09:00:53;;;;;;;12.02;9.25;;;;;;;19.93;58.62;93617.41;4976004;28;20526;-75
2021/08/26 09:03:20;;;;;;;12.55;9.50;;;;;;;19.74;60.01;93611.13;4973689;28;20036;-75
2021/08/26 09:05:57;;;;;;;13.32;10.55;;;;;;;19.75;61.46;93615.34;4973934;28;20050;-76
2021/08/26 09:08:27;;;;;;;14.75;10.45;;;;;;;19.99;59.19;93618.59;4973002;28;20043;-75
2021/08/26 09:11:07;;;;;;;13.52;10.52;;;;;;;20.07;58.66;93622.88;4975538;28;20058;-75
2021/08/26 09:13:34;;;;;;;14.90;9.20;;;;;;;20.14;57.17;93614.84;4974385;28;20046;-75
2021/08/26 09:16:00;;;;;;;11.52;8.93;;;;;;;20.02;58.60;93615.91;4976036;28;20041;-75
2021/08/26 09:18:26;;;;;;;12.73;9.57;;;;;;;19.84;60.21;93600.78;4973985;28;20062;-75
2021/08/26 09:20:58;;;;;;;16.27;10.43;;;;;;;19.88;61.57;93609.66;4974818;28;20524;-75
2021/08/26 09:23:34;;;;;;;12.70;9.35;;;;;;;20.06;60.58;93607.81;4970941;28;20074;-75
2021/08/26 09:26:19;;;;;;;14.02;10.52;;;;;;;20.00;61.41;93606.63;4969919;28;20026;-75
2021/08/26 09:28:46;;;;;;;14.25;10.05;;;;;;;19.99;61.43;93605.09;4974513;28;20026;-75
2021/08/26 09:31:14;;;;;;;11.68;9.32;;;;;;;19.97;61.07;93618.19;4974032;28;20031;-74
2021/08/26 09:33:45;;;;;;;13.77;9.43;;;;;;;19.94;61.54;93616.25;4988825;28;20041;-75
2021/08/26 09:36:17;;;;;;;19.08;13.20;;;;;;;19.63;61.89;93610.28;4972215;28;20061;-75
2021/08/26 09:38:43;;;;;;;14.40;10.38;;;;;;;19.84;62.19;93619.66;4972187;28;20493;-75
2021/08/26 09:41:08;;;;;;;13.00;10.48;;;;;;;19.82;63.02;93621.94;4974122;28;20083;-75
2021/08/26 09:43:33;;;;;;;14.18;10.48;;;;;;;19.77;62.31;93617.69;4974382;28;20026;-76
2021/08/26 09:46:01;;;;;;;16.45;10.77;;;;;;;20.03;62.74;93630.19;4973314;28;20049;-76
2021/08/26 09:48:26;;;;;;;15.95;11.20;;;;;;;19.86;63.04;93614.66;4973418;28;20974;-75
2021/08/26 09:50:53;;;;;;;15.02;10.45;;;;;;;19.86;62.70;93636.22;4974868;28;20638;-75
2021/08/26 09:53:31;;;;;;;14.32;10.32;;;;;;;19.92;63.46;93629.34;4971117;28;20046;-77
2021/08/26 09:56:04;;;;;;;14.75;10.93;;;;;;;19.96;62.94;93622.03;4973344;28;20480;-75
2021/08/26 09:58:32;;;;;;;19.25;11.98;;;;;;;20.06;63.45;93632.13;4972771;28;20076;-75
2021/08/26 10:01:20;;;;;;;15.38;11.07;;;;;;;20.12;63.81;93617.13;4973023;28;20049;-75
2021/08/26 10:03:46;;;;;;;15.18;10.55;;;;;;;20.24;63.22;93618.78;4986159;28;20093;-75
2021/08/26 10:06:14;;;;;;;15.82;10.73;;;;;;;20.24;63.60;93608.72;4972306;28;20108;-75
2021/08/26 10:08:42;;;;;;;13.50;10.20;;;;;;;20.51;61.83;93620.81;4985570;28;20520;-75
2021/08/26 10:11:09;;;;;;;13.85;10.02;;;;;;;20.32;62.02;93604.91;4972777;28;20041;-76
2021/08/26 10:13:35;;;;;;;13.70;10.95;;;;;;;20.34;62.87;93612.63;4972751;28;20355;-75
2021/08/26 10:16:01;;;;;;;15.07;11.02;;;;;;;20.15;64.89;93600.94;4973406;28;20026;-75
2021/08/26 10:18:29;;;;;;;12.93;11.00;;;;;;;20.19;61.76;93617.19;4972557;28;20045;-74
2021/08/26 10:20:58;;;;;;;16.98;12.25;;;;;;;20.09;63.69;93604.41;4974157;28;20430;-75
2021/08/26 10:23:25;;;;;;;16.83;12.82;;;;;;;20.07;63.80;93612.09;4976661;28;20367;-75
2021/08/26 10:25:53;;;;;;;17.40;14.13;;;;;;;20.03;60.97;93608.59;4972576;28;20593;-76
2021/08/26 10:28:20;;;;;;;16.17;12.32;;;;;;;20.22;59.99;93611.03;4974815;28;20357;-75
2021/08/26 10:30:46;;;;;;;17.90;13.43;;;;;;;20.45;60.92;93613.44;4976452;28;20358;-75
2021/08/26 10:33:14;;;;;;;20.52;12.70;;;;;;;20.44;60.10;93612.66;4973882;28;20111;-77
2021/08/26 10:36:00;;;;;;;15.05;11.93;;;;;;;20.58;59.34;93622.78;4972429;28;20509;-76
2021/08/26 10:38:30;;;;;;;21.95;13.57;;;;;;;20.36;61.14;93605.69;4972713;28;20047;-76
2021/08/26 10:41:19;;;;;;;17.50;12.32;;;;;;;20.56;61.17;93606.16;4973662;28;20027;-76
2021/08/26 10:43:52;;;;;;;19.63;13.43;;;;;;;20.62;62.22;93603.88;4975226;28;20022;-75
2021/08/26 10:46:17;;;;;;;19.10;14.27;;;;;;;20.69;61.64;93587.66;4973790;28;20085;-75
2021/08/26 10:49:00;;;;;;;18.88;15.35;;;;;;;20.73;60.20;93601.97;4971595;28;20521;-75
2021/08/26 10:51:42;;;;;;;19.85;15.30;;;;;;;20.69;60.47;93590.38;4975956;28;20093;-75
2021/08/26 10:54:25;;;;;;;21.75;16.20;;;;;;;20.91;60.69;93608.22;4976818;28;20047;-76
2021/08/26 10:56:51;;;;;;;23.90;16.02;;;;;;;20.89;60.49;93607.81;4979001;28;21100;-76
2021/08/26 10:59:32;;;;;;;24.58;16.48;;;;;;;20.74;59.27;93614.31;4977706;28;20121;-76
2021/08/26 11:01:59;;;;;;;17.15;14.13;;;;;;;20.88;60.06;93608.97;4980234;28;20034;-75
2021/08/26 11:04:33;;;;;;;26.40;17.63;;;;;;;21.11;58.05;93609.44;4975411;28;20035;-77
2021/08/26 11:06:59;;;;;;;23.63;15.70;;;;;;;20.91;60.59;93602.81;4977673;28;20041;-75
2021/08/26 11:09:28;;;;;;;20.83;16.63;;;;;;;20.83;58.75;93593.09;4974744;28;20050;-75
2021/08/26 11:11:59;;;;;;;24.88;16.20;;;;;;;20.80;58.87;93591.19;4978245;28;20053;-75
2021/08/26 11:14:27;;;;;;;21.33;15.73;;;;;;;20.87;59.97;93589.31;4968775;28;20524;-76
2021/08/26 11:16:54;;;;;;;20.42;14.60;;;;;;;20.88;60.30;93585.44;4973098;28;20034;-75
2021/08/26 11:19:20;;;;;;;23.73;15.70;;;;;;;20.91;61.35;93573.09;4991937;28;20038;-75
2021/08/26 11:21:46;;;;;;;22.42;14.82;;;;;;;20.83;60.06;93572.25;4972803;28;20046;-75
2021/08/26 11:24:14;;;;;;;20.15;16.67;;;;;;;20.76;59.51;93568.78;4969866;28;20222;-76
2021/08/26 11:26:51;;;;;;;20.98;15.57;;;;;;;20.77;60.41;93562.22;4967330;28;20120;-75
2021/08/26 11:29:17;;;;;;;19.55;15.32;;;;;;;20.85;59.67;93561.84;4972933;28;20556;-75